Terminal Aerodrome Forecast
Issued by NWS

Home | Current Version | Previous Version | Text Only | Print | Product List | Glossary On
Versions: 1 2 3 4 5 6 7 8 9 10 11 12 13 14 15 16 17 18
000
FTUS41 KGYX 270911 AAB
TAFLEB
TAF AMD
KLEB 270911Z 2709/2806 19008KT 6SM HZ BKN100 WS010/23030KT
     FM271300 19009KT P6SM BKN050
     FM271800 20013G20KT P6SM OVC050
      TEMPO 2720/2724 4SM TS BKN050CB
     FM280000 19007KT 5SM BR SCT050 BKN100=

USA.gov is the U.S. government's official web portal to all federal, state and local government web resources and services.